Time;durP1;ratioP1;P1;durP2;ratioP2;P2;SDS_P1;SDS_P2;PMS_P1;PMS_P2;Temp;Humidity;BMP_temperature;BMP_pressure;BME280_temperature;BME280_humidity;BME280_pressure;Samples;Min_cycle;Max_cycle;Signal;HPM_P1;HPM_P2
2022/04/06 00:00:23;;;;;;;0.17;0.17;;;;;;;23.39;10.28;97169.28;5015738;28;20472;-75
2022/04/06 00:02:48;;;;;;;0.20;0.20;;;;;;;23.40;10.22;97175.50;5015428;28;20041;-75
2022/04/06 00:05:13;;;;;;;0.20;0.20;;;;;;;23.40;10.42;97175.50;5015184;28;20026;-74
2022/04/06 00:07:40;;;;;;;0.20;0.20;;;;;;;23.38;10.47;97178.56;4998025;28;20073;-74
2022/04/06 00:10:07;;;;;;;0.20;0.20;;;;;;;23.39;10.24;97179.38;4995833;28;20042;-75
2022/04/06 00:12:33;;;;;;;0.10;0.10;;;;;;;23.38;10.18;97186.75;4995876;28;20099;-75
2022/04/06 00:14:59;;;;;;;0.20;0.20;;;;;;;23.37;10.22;97187.09;4978222;28;20034;-77
2022/04/06 00:17:24;;;;;;;0.20;0.20;;;;;;;23.37;10.33;97193.38;4995376;28;20372;-77
2022/04/06 00:19:50;;;;;;;0.17;0.17;;;;;;;23.37;10.34;97190.63;4995328;28;20025;-77
2022/04/06 00:22:15;;;;;;;0.20;0.20;;;;;;;23.34;10.43;97191.34;4995713;28;20026;-77
2022/04/06 00:24:40;;;;;;;0.10;0.10;;;;;;;23.26;10.29;97181.38;4995597;28;20027;-76
2022/04/06 00:27:06;;;;;;;0.20;0.20;;;;;;;23.36;10.17;97199.16;4995421;28;20026;-76
2022/04/06 00:29:31;;;;;;;0.20;0.20;;;;;;;23.38;10.03;97199.59;4995084;28;20023;-76
2022/04/06 00:31:57;;;;;;;0.10;0.10;;;;;;;23.36;10.18;97202.66;4995380;28;20027;-76
2022/04/06 00:35:28;;;;;;;0.20;0.20;;;;;;;23.35;10.13;97206.56;4995397;28;20028;-76
2022/04/06 00:37:08;;;;;;;0.20;0.20;;;;;;;23.35;10.16;97203.81;4995025;28;20188;-77
2022/04/06 00:39:33;;;;;;;0.20;0.20;;;;;;;23.32;10.27;97207.25;4995546;28;20030;-78
2022/04/06 00:41:59;;;;;;;0.20;0.20;;;;;;;23.32;10.14;97209.16;4994969;28;20357;-78
2022/04/06 00:44:24;;;;;;;0.17;0.17;;;;;;;23.31;10.12;97199.41;4995182;28;20022;-77
2022/04/06 00:46:50;;;;;;;0.15;0.15;;;;;;;23.33;10.10;97213.47;4995418;28;20065;-77
2022/04/06 00:49:15;;;;;;;0.20;0.20;;;;;;;23.32;10.17;97220.88;4995120;28;20034;-77
2022/04/06 00:51:43;;;;;;;0.20;0.20;;;;;;;23.31;10.30;97216.53;4994118;28;20104;-77
2022/04/06 00:54:08;;;;;;;0.20;0.20;;;;;;;23.27;10.00;97212.94;4994904;28;20026;-77
2022/04/06 00:56:34;;;;;;;0.15;0.15;;;;;;;23.31;10.03;97222.00;4994776;28;20034;-75
2022/04/06 00:59:00;;;;;;;0.20;0.20;;;;;;;23.31;9.91;97227.44;4994131;28;20063;-77
2022/04/06 01:01:25;;;;;;;0.20;0.20;;;;;;;23.32;9.99;97234.50;4977572;28;20496;-77
2022/04/06 01:03:50;;;;;;;0.10;0.10;;;;;;;23.30;10.11;97225.88;4995485;28;20026;-76
2022/04/06 01:06:16;;;;;;;0.20;0.20;;;;;;;23.24;10.09;97229.97;4997959;28;20439;-76
2022/04/06 01:08:41;;;;;;;0.20;0.20;;;;;;;23.30;10.01;97235.97;5013099;28;20053;-75
2022/04/06 01:11:07;;;;;;;0.20;0.20;;;;;;;23.30;9.90;97234.06;5014906;28;20034;-75
2022/04/06 01:13:32;;;;;;;0.20;0.20;;;;;;;23.29;9.88;97243.34;5014521;28;20340;-75
2022/04/06 01:15:57;;;;;;;0.20;0.20;;;;;;;23.30;9.99;97241.41;5014737;28;20080;-75
2022/04/06 01:18:23;;;;;;;0.15;0.15;;;;;;;23.29;10.05;97243.34;5014234;28;20034;-74
2022/04/06 01:20:48;;;;;;;0.10;0.10;;;;;;;23.29;9.93;97239.84;5012960;28;20476;-76
2022/04/06 01:23:14;;;;;;;0.20;0.20;;;;;;;23.29;9.86;97245.28;5014229;28;20345;-75
2022/04/06 01:25:40;;;;;;;0.17;0.17;;;;;;;23.28;9.79;97249.94;5014227;28;20460;-76
2022/04/06 01:28:06;;;;;;;0.10;0.10;;;;;;;23.27;9.85;97253.81;5012979;28;20030;-75
2022/04/06 01:30:32;;;;;;;0.20;0.20;;;;;;;23.27;10.08;97247.53;5014248;28;20054;-76
2022/04/06 01:32:57;;;;;;;0.20;0.20;;;;;;;23.27;9.84;97253.00;5014027;28;20491;-76
2022/04/06 01:35:23;;;;;;;0.13;0.10;;;;;;;23.27;10.02;97258.44;5014163;28;20022;-75
2022/04/06 01:37:49;;;;;;;0.10;0.10;;;;;;;23.26;9.99;97254.94;5013637;28;20044;-77
2022/04/06 01:40:14;;;;;;;0.20;0.20;;;;;;;23.26;10.03;97263.09;5014176;28;20029;-75
2022/04/06 01:42:40;;;;;;;0.30;0.30;;;;;;;23.25;10.03;97256.09;5014534;28;20523;-76
2022/04/06 01:45:06;;;;;;;0.20;0.20;;;;;;;23.23;9.73;97270.06;5014404;28;20349;-78
2022/04/06 01:47:31;;;;;;;0.30;0.22;;;;;;;23.25;9.79;97258.81;5014404;28;20025;-77
2022/04/06 01:52:41;;;;;;;0.20;0.20;;;;;;;23.20;9.92;97253.63;5013841;28;20518;-77
2022/04/06 01:55:07;;;;;;;0.20;0.20;;;;;;;23.25;9.92;97267.00;5014164;28;20026;-75
2022/04/06 01:57:33;;;;;;;0.10;0.10;;;;;;;23.25;9.71;97261.53;5012439;28;20031;-77
2022/04/06 01:59:58;;;;;;;0.20;0.20;;;;;;;23.24;9.76;97266.19;5013565;28;20028;-78
2022/04/06 02:02:26;;;;;;;0.10;0.10;;;;;;;23.23;9.78;97270.06;5013790;28;20377;-77
2022/04/06 02:04:51;;;;;;;0.20;0.20;;;;;;;23.25;9.64;97269.72;5017205;28;20026;-76
2022/04/06 02:07:17;;;;;;;0.30;0.30;;;;;;;23.20;9.87;97275.41;5006226;28;20353;-76
2022/04/06 02:09:43;;;;;;;0.20;0.20;;;;;;;23.17;9.93;97276.09;4997990;28;20519;-77
2022/04/06 02:12:09;;;;;;;0.20;0.20;;;;;;;23.22;9.65;97284.03;4998303;28;20034;-77
2022/04/06 02:14:35;;;;;;;0.32;0.30;;;;;;;23.23;9.66;97282.88;4998260;28;20124;-76
2022/04/06 02:17:01;;;;;;;0.20;0.20;;;;;;;23.20;9.78;97278.13;4998376;28;20496;-76
2022/04/06 02:19:26;;;;;;;0.20;0.20;;;;;;;23.19;9.84;97284.72;4999319;28;20030;-76
2022/04/06 02:21:52;;;;;;;0.22;0.20;;;;;;;23.21;9.73;97290.59;4997678;28;20372;-75
2022/04/06 02:24:18;;;;;;;0.20;0.20;;;;;;;23.19;9.80;97284.72;4997826;28;20035;-76
2022/04/06 02:26:44;;;;;;;0.28;0.28;;;;;;;23.22;9.62;97292.19;4997759;28;20157;-76
2022/04/06 02:29:09;;;;;;;0.10;0.10;;;;;;;23.17;9.68;97278.81;4997807;28;20022;-75
2022/04/06 02:31:35;;;;;;;0.28;0.20;;;;;;;23.18;9.64;97285.84;4997961;28;20167;-75
2022/04/06 02:34:00;;;;;;;0.20;0.20;;;;;;;23.19;9.58;97290.16;4996068;28;20424;-75
2022/04/06 02:36:26;;;;;;;0.20;0.20;;;;;;;23.20;9.57;97292.53;4997295;28;20030;-76
2022/04/06 02:38:51;;;;;;;0.20;0.20;;;;;;;23.20;9.72;97298.00;4995984;28;20034;-76
2022/04/06 02:41:17;;;;;;;0.20;0.20;;;;;;;23.20;9.54;97291.75;4997461;28;20026;-75
2022/04/06 02:43:42;;;;;;;0.20;0.20;;;;;;;23.21;9.50;97304.22;4997288;28;20034;-75
2022/04/06 02:46:07;;;;;;;0.20;0.20;;;;;;;23.16;9.53;97290.84;4997592;28;20038;-76
2022/04/06 02:48:34;;;;;;;0.15;0.15;;;;;;;23.19;9.46;97296.38;4996068;28;20122;-75
2022/04/06 02:51:00;;;;;;;0.20;0.20;;;;;;;23.17;9.58;97297.88;4997152;28;20050;-76
2022/04/06 02:53:25;;;;;;;0.20;0.20;;;;;;;23.19;9.44;97311.94;4996939;28;20033;-75
2022/04/06 02:55:50;;;;;;;0.20;0.20;;;;;;;23.16;9.46;97297.09;4997519;28;20023;-75
2022/04/06 02:58:17;;;;;;;0.20;0.20;;;;;;;23.09;9.47;97290.66;4996155;28;20461;-75
2022/04/06 03:00:43;;;;;;;0.10;0.10;;;;;;;23.19;9.52;97311.94;4996097;28;20111;-75
2022/04/06 03:03:08;;;;;;;0.20;0.20;;;;;;;23.19;9.46;97306.50;4997253;28;20026;-75
2022/04/06 03:05:33;;;;;;;0.25;0.20;;;;;;;23.19;9.36;97322.84;4997048;28;20041;-75
2022/04/06 03:07:59;;;;;;;0.10;0.10;;;;;;;23.18;9.46;97313.06;5012752;28;20424;-74
2022/04/06 03:10:24;;;;;;;0.25;0.20;;;;;;;23.19;9.46;97318.19;5031402;28;20034;-81
2022/04/06 03:12:50;;;;;;;0.45;0.20;;;;;;;23.23;9.33;97321.81;4999994;28;20050;-80
2022/04/06 03:15:15;;;;;;;0.20;0.20;;;;;;;23.25;9.44;97326.94;5016810;28;20026;-80
2022/04/06 03:17:41;;;;;;;0.20;0.20;;;;;;;23.28;9.55;97320.75;5016380;28;20460;-79
2022/04/06 03:20:09;;;;;;;0.20;0.20;;;;;;;23.32;9.54;97329.03;5033349;28;20038;-80
2022/04/06 03:22:35;;;;;;;0.20;0.20;;;;;;;23.36;9.48;97327.22;5018022;28;20029;-82
2022/04/06 03:25:01;;;;;;;0.20;0.20;;;;;;;23.40;9.41;97334.38;5017769;28;20036;-81
2022/04/06 03:27:26;;;;;;;0.20;0.20;;;;;;;23.43;9.18;97336.38;5016398;28;20026;-79
2022/04/06 03:29:52;;;;;;;0.20;0.20;;;;;;;23.39;9.21;97338.22;5016797;28;20061;-79
2022/04/06 03:32:18;;;;;;;0.10;0.10;;;;;;;23.44;9.40;97335.25;5017602;28;20034;-80
2022/04/06 03:34:44;;;;;;;0.20;0.20;;;;;;;23.51;9.43;97339.28;5017979;28;20048;-79
2022/04/06 03:37:09;;;;;;;0.20;0.20;;;;;;;23.52;9.34;97333.50;5017624;28;20026;-80
2022/04/06 03:39:35;;;;;;;0.30;0.30;;;;;;;23.55;9.40;97335.53;5017559;28;20022;-79
2022/04/06 03:42:00;;;;;;;0.20;0.20;;;;;;;23.59;8.97;97341.06;5016471;28;20029;-80
2022/04/06 03:44:25;;;;;;;0.10;0.10;;;;;;;23.55;8.80;97340.19;5018008;28;20026;-80
2022/04/06 03:46:52;;;;;;;0.30;0.20;;;;;;;23.60;8.93;97343.47;5018229;28;20021;-81
2022/04/06 03:49:18;;;;;;;0.20;0.20;;;;;;;23.64;9.02;97338.09;5017726;28;20460;-79
2022/04/06 03:51:43;;;;;;;0.20;0.20;;;;;;;23.62;8.99;97343.13;5017602;28;20125;-80
2022/04/06 03:54:09;;;;;;;0.10;0.10;;;;;;;23.62;8.90;97346.63;5017433;28;20041;-80
2022/04/06 03:56:34;;;;;;;0.17;0.17;;;;;;;23.62;9.20;97345.84;5018199;28;20067;-80
2022/04/06 03:59:00;;;;;;;0.20;0.20;;;;;;;23.46;9.10;97315.00;5018805;28;20034;-78
2022/04/06 04:01:25;;;;;;;0.20;0.20;;;;;;;23.62;9.05;97333.00;5017915;28;20060;-79
2022/04/06 04:03:51;;;;;;;0.17;0.17;;;;;;;23.73;9.10;97357.84;5018875;28;20385;-79
2022/04/06 04:06:17;;;;;;;0.10;0.10;;;;;;;23.75;8.92;97352.81;5018362;28;20026;-80
2022/04/06 04:08:42;;;;;;;0.22;0.20;;;;;;;23.78;8.99;97360.31;4999681;28;20445;-79
2022/04/06 04:11:08;;;;;;;0.60;0.40;;;;;;;23.80;8.99;97362.66;4999126;28;20024;-81
2022/04/06 04:13:33;;;;;;;0.88;0.50;;;;;;;23.78;8.87;97367.69;4998922;28;20464;-81
2022/04/06 04:15:59;;;;;;;4.28;1.80;;;;;;;23.83;9.18;97367.47;4999500;28;20038;-81
2022/04/06 04:18:24;;;;;;;8.73;3.83;;;;;;;23.86;8.97;97371.44;4999136;28;20022;-81
2022/04/06 04:21:31;;;;;;;25.80;10.02;;;;;;;23.87;9.06;97367.56;5004436;28;20381;-79
2022/04/06 04:23:35;;;;;;;22.45;8.80;;;;;;;23.84;9.13;97362.81;5006506;28;20034;-81
2022/04/06 04:26:01;;;;;;;30.15;12.60;;;;;;;23.89;9.22;97365.28;5008183;28;20033;-81
2022/04/06 04:28:28;;;;;;;17.40;7.13;;;;;;;23.83;9.19;97372.13;5008103;28;20022;-79
2022/04/06 04:30:54;;;;;;;16.65;6.50;;;;;;;23.86;9.24;97380.41;5005400;28;20069;-80
2022/04/06 04:33:20;;;;;;;16.13;6.70;;;;;;;23.95;9.38;97380.25;5007391;28;20027;-79
2022/04/06 04:35:45;;;;;;;12.13;5.38;;;;;;;23.98;9.25;97383.06;5006864;28;20026;-80
2022/04/06 04:38:11;;;;;;;9.43;4.30;;;;;;;24.03;9.50;97384.75;5001871;28;20461;-79
2022/04/06 04:40:37;;;;;;;8.90;3.97;;;;;;;23.95;9.27;97380.25;5000748;28;20496;-79
2022/04/06 04:43:03;;;;;;;50.63;21.30;;;;;;;24.03;9.43;97395.66;4996321;28;20102;-78
2022/04/06 04:45:28;;;;;;;19.23;7.35;;;;;;;24.03;9.10;97378.50;4996090;28;20038;-77
2022/04/06 04:47:54;;;;;;;39.08;15.07;;;;;;;24.07;9.13;97388.34;4996078;28;20029;-79
2022/04/06 04:50:19;;;;;;;45.65;19.85;;;;;;;24.09;9.26;97391.50;4995835;28;20457;-79
2022/04/06 04:52:45;;;;;;;64.47;28.48;;;;;;;24.11;9.36;97389.25;4995341;28;20500;-75
2022/04/06 04:55:10;;;;;;;42.67;18.35;;;;;;;24.14;9.34;97393.22;4995986;28;20034;-76
2022/04/06 04:57:36;;;;;;;25.92;12.50;;;;;;;24.06;9.39;97403.16;4996440;28;20026;-74
2022/04/06 05:00:02;;;;;;;28.75;12.60;;;;;;;24.12;9.75;97396.28;5001848;28;20029;-76
2022/04/06 05:02:27;;;;;;;20.25;8.05;;;;;;;24.13;9.52;97392.41;5001943;28;20030;-76
2022/04/06 05:04:53;;;;;;;12.77;4.93;;;;;;;24.13;9.49;97397.88;4997154;28;20492;-75
2022/04/06 05:07:18;;;;;;;6.55;3.22;;;;;;;24.11;9.80;97399.34;5003204;28;20360;-76
2022/04/06 05:09:44;;;;;;;6.60;2.40;;;;;;;23.98;9.79;97413.06;5017460;28;20017;-75
2022/04/06 05:12:10;;;;;;;5.20;2.15;;;;;;;24.14;9.72;97404.91;5017093;28;20033;-74
2022/04/06 05:14:35;;;;;;;3.83;1.48;;;;;;;24.19;9.68;97406.59;5016437;28;20065;-76
2022/04/06 05:17:01;;;;;;;2.67;1.65;;;;;;;24.24;9.54;97413.72;5015739;28;20457;-76
2022/04/06 05:19:26;;;;;;;2.60;1.20;;;;;;;24.22;9.77;97405.13;5016643;28;20381;-75
2022/04/06 05:21:52;;;;;;;1.33;0.90;;;;;;;24.19;9.87;97412.81;5014716;28;20025;-76
2022/04/06 05:24:17;;;;;;;4.03;0.93;;;;;;;24.34;9.86;97415.94;5021029;28;20030;-76
2022/04/06 05:26:43;;;;;;;0.93;0.60;;;;;;;24.32;9.57;97410.06;5028649;28;20474;-75
2022/04/06 05:29:09;;;;;;;0.90;0.60;;;;;;;24.37;9.47;97423.44;5028606;28;20021;-75
2022/04/06 05:31:36;;;;;;;0.98;0.55;;;;;;;24.32;9.98;97415.50;5027366;28;20033;-76
2022/04/06 05:34:01;;;;;;;1.85;0.60;;;;;;;24.24;9.85;97406.31;5028196;28;20032;-75
2022/04/06 05:36:28;;;;;;;1.95;0.63;;;;;;;24.41;9.84;97431.72;5027333;28;20014;-75
2022/04/06 05:38:55;;;;;;;0.60;0.50;;;;;;;24.43;9.84;97432.16;5027380;28;20048;-76
2022/04/06 05:41:21;;;;;;;0.95;0.40;;;;;;;24.39;9.71;97421.13;5027629;28;20101;-74
2022/04/06 05:43:49;;;;;;;2.05;0.47;;;;;;;24.44;9.85;97434.53;5027476;28;20400;-75
2022/04/06 05:46:14;;;;;;;0.57;0.45;;;;;;;24.35;10.04;97431.16;5029268;28;20009;-74
2022/04/06 05:48:40;;;;;;;0.20;0.20;;;;;;;24.35;9.92;97436.63;5028121;28;20029;-72
2022/04/06 05:51:06;;;;;;;1.33;0.43;;;;;;;24.33;9.86;97433.44;5032657;28;20053;-74
2022/04/06 05:53:31;;;;;;;0.82;0.50;;;;;;;24.46;10.13;97434.97;5031398;28;20018;-73
2022/04/06 05:55:57;;;;;;;0.70;0.50;;;;;;;24.53;10.10;97443.31;5030214;28;20029;-74
2022/04/06 05:58:22;;;;;;;0.65;0.40;;;;;;;24.51;10.36;97437.44;5031526;28;20060;-73
2022/04/06 06:00:48;;;;;;;0.50;0.30;;;;;;;24.62;10.41;97443.19;5034049;28;20014;-73
2022/04/06 06:03:14;;;;;;;1.00;0.50;;;;;;;24.70;10.32;97452.34;5034400;28;20095;-73
2022/04/06 06:05:40;;;;;;;0.43;0.40;;;;;;;24.68;10.27;97449.16;5033758;28;20136;-73
2022/04/06 06:08:05;;;;;;;0.90;0.55;;;;;;;24.68;10.32;97451.91;5023488;28;20030;-73
2022/04/06 06:10:31;;;;;;;0.95;0.30;;;;;;;24.72;10.57;97450.06;5015832;28;20069;-73
2022/04/06 06:12:58;;;;;;;0.30;0.30;;;;;;;24.67;10.33;97442.13;5013766;28;20018;-73
2022/04/06 06:15:23;;;;;;;0.47;0.30;;;;;;;24.66;10.20;97456.91;5014243;28;20041;-73
2022/04/06 06:17:49;;;;;;;0.70;0.30;;;;;;;24.80;10.45;97451.81;5012812;28;20030;-72
2022/04/06 06:20:14;;;;;;;0.45;0.20;;;;;;;24.84;10.40;97458.16;5015368;28;20037;-73
2022/04/06 06:22:40;;;;;;;22.80;7.50;;;;;;;24.90;10.28;97458.66;5012202;28;20062;-72
2022/04/06 06:25:05;;;;;;;13.82;5.80;;;;;;;24.89;10.47;97466.09;4999988;28;20023;-74
2022/04/06 06:27:37;;;;;;;1.00;0.65;;;;;;;24.83;10.47;97444.84;4999225;28;20073;-73
2022/04/06 06:30:06;;;;;;;1.15;0.65;;;;;;;24.83;10.32;97456.56;4996934;28;20102;-74
2022/04/06 06:32:32;;;;;;;1.08;0.60;;;;;;;24.86;10.29;97457.81;4998205;28;20105;-73
2022/04/06 06:34:57;;;;;;;2.38;0.45;;;;;;;24.97;10.47;97466.25;4998373;28;20058;-74
2022/04/06 06:37:23;;;;;;;0.40;0.40;;;;;;;24.91;10.61;97463.78;4996522;28;20027;-76
2022/04/06 06:39:49;;;;;;;0.45;0.38;;;;;;;24.97;10.48;97479.91;4994781;28;20365;-75
2022/04/06 06:42:15;;;;;;;2.40;0.40;;;;;;;24.95;10.39;97480.25;4994366;28;20120;-75
2022/04/06 06:44:40;;;;;;;0.47;0.40;;;;;;;24.90;10.51;97478.56;4994078;28;20038;-74
2022/04/06 06:47:06;;;;;;;0.68;0.35;;;;;;;25.02;10.26;97474.97;4993240;28;20035;-75
2022/04/06 06:49:33;;;;;;;1.92;0.40;;;;;;;25.02;10.27;97482.38;4996730;28;20030;-74
2022/04/06 06:51:58;;;;;;;0.20;0.20;;;;;;;25.04;10.23;97474.59;4977178;28;20084;-74
2022/04/06 06:54:24;;;;;;;1.88;0.40;;;;;;;25.01;10.29;97483.50;4979492;28;20022;-74
2022/04/06 06:56:49;;;;;;;0.65;0.40;;;;;;;25.06;10.27;97486.78;4978838;28;20409;-75
2022/04/06 06:59:15;;;;;;;0.22;0.22;;;;;;;25.00;10.54;97493.66;4979959;28;20433;-74
2022/04/06 07:01:40;;;;;;;0.75;0.30;;;;;;;25.06;10.14;97488.69;4977876;28;20034;-75
2022/04/06 07:04:07;;;;;;;0.52;0.50;;;;;;;25.12;10.38;97490.81;4977363;28;20039;-75
2022/04/06 07:06:32;;;;;;;0.32;0.22;;;;;;;25.12;10.22;97500.97;4975327;28;20043;-74
2022/04/06 07:08:58;;;;;;;0.28;0.28;;;;;;;25.11;10.04;97505.63;4993788;28;20030;-74
2022/04/06 07:11:23;;;;;;;2.10;0.38;;;;;;;25.14;10.27;97508.81;4996799;28;20374;-73
2022/04/06 07:13:49;;;;;;;2.42;0.50;;;;;;;25.16;10.24;97517.44;4996553;28;20022;-75
2022/04/06 07:16:15;;;;;;;0.20;0.20;;;;;;;25.19;10.18;97511.28;4996714;28;20023;-74
2022/04/06 07:18:41;;;;;;;0.20;0.20;;;;;;;25.21;10.46;97507.03;4997185;28;20037;-74
2022/04/06 07:21:07;;;;;;;1.13;0.22;;;;;;;25.08;10.84;97508.28;4998273;28;20460;-74
2022/04/06 07:23:33;;;;;;;0.73;0.38;;;;;;;25.19;10.77;97516.72;4996566;28;20039;-74
2022/04/06 07:25:58;;;;;;;0.30;0.30;;;;;;;25.22;10.52;97516.81;4996736;28;20104;-74
2022/04/06 07:28:24;;;;;;;0.32;0.30;;;;;;;25.28;11.03;97529.09;4995254;28;20053;-74
2022/04/06 07:30:49;;;;;;;1.75;0.30;;;;;;;25.31;11.12;97527.59;4995259;28;20030;-72
2022/04/06 07:33:15;;;;;;;5.03;2.85;;;;;;;25.33;11.01;97519.81;4996081;28;20052;-73
2022/04/06 07:35:41;;;;;;;5.47;1.40;;;;;;;25.33;10.60;97527.22;4994381;28;20042;-73
2022/04/06 07:38:06;;;;;;;1.65;0.73;;;;;;;25.36;10.86;97521.06;4996732;28;20026;-73
2022/04/06 07:40:32;;;;;;;1.70;0.73;;;;;;;25.35;10.64;97522.19;4994964;28;20042;-72
2022/04/06 07:42:57;;;;;;;0.47;0.40;;;;;;;25.32;10.86;97526.44;4996766;28;20034;-72
2022/04/06 07:45:24;;;;;;;2.35;0.75;;;;;;;25.35;10.80;97524.94;4996144;28;20072;-72
2022/04/06 07:47:50;;;;;;;1.48;0.40;;;;;;;25.40;10.59;97527.41;4996713;28;20049;-72
2022/04/06 07:50:17;;;;;;;0.60;0.35;;;;;;;25.35;10.57;97527.66;4996589;28;20034;-73
2022/04/06 07:52:42;;;;;;;0.73;0.30;;;;;;;25.44;10.50;97531.00;5013824;28;20484;-73
2022/04/06 07:55:08;;;;;;;1.23;0.40;;;;;;;25.42;10.74;97536.03;5015557;28;20018;-72
2022/04/06 07:57:34;;;;;;;1.92;0.40;;;;;;;25.41;10.70;97539.94;5015785;28;20026;-73
2022/04/06 08:00:03;;;;;;;1.95;0.30;;;;;;;25.42;10.59;97536.03;5013711;28;20034;-72
2022/04/06 08:02:28;;;;;;;1.20;0.40;;;;;;;25.46;10.53;97553.31;5015384;28;20053;-73
2022/04/06 08:04:54;;;;;;;1.05;0.30;;;;;;;25.47;10.73;97549.44;5016546;28;20077;-72
2022/04/06 08:07:19;;;;;;;0.32;0.30;;;;;;;25.47;10.60;97554.88;5014848;28;20029;-72
2022/04/06 08:09:45;;;;;;;1.48;0.30;;;;;;;25.46;10.47;97553.31;4995397;28;20034;-72
2022/04/06 08:12:10;;;;;;;0.30;0.30;;;;;;;25.41;10.73;97553.59;4995319;28;20034;-73
2022/04/06 08:14:36;;;;;;;1.42;0.30;;;;;;;25.44;10.65;97561.06;4996115;28;20030;-72
2022/04/06 08:17:01;;;;;;;1.00;0.50;;;;;;;25.42;10.34;97566.09;4995328;28;20476;-73
2022/04/06 08:19:27;;;;;;;2.33;1.20;;;;;;;25.49;10.36;97558.06;4995625;28;20105;-74
2022/04/06 08:21:53;;;;;;;1.38;1.00;;;;;;;25.52;10.60;97568.28;4995691;28;20034;-74
2022/04/06 08:24:19;;;;;;;1.90;1.00;;;;;;;25.50;10.40;97562.38;4995687;28;20023;-74
2022/04/06 08:26:44;;;;;;;2.22;1.05;;;;;;;25.50;10.34;97581.53;4995879;28;20346;-74
2022/04/06 08:29:09;;;;;;;2.03;0.77;;;;;;;25.45;10.43;97559.94;4995239;28;20022;-75
2022/04/06 08:31:35;;;;;;;3.13;0.70;;;;;;;25.60;10.50;97572.00;4995814;28;20015;-74
2022/04/06 08:34:01;;;;;;;1.08;0.70;;;;;;;25.62;10.38;97573.22;4996167;28;20023;-75
2022/04/06 08:36:27;;;;;;;2.75;0.73;;;;;;;25.52;10.40;97579.22;5003035;28;20522;-73
2022/04/06 08:38:53;;;;;;;1.45;0.70;;;;;;;25.57;10.32;97583.63;5002965;28;20032;-74
2022/04/06 08:41:18;;;;;;;2.95;0.77;;;;;;;25.57;10.32;97576.22;5006291;28;20031;-74
2022/04/06 08:43:46;;;;;;;0.82;0.70;;;;;;;25.64;10.40;97595.53;5005523;28;20121;-74
2022/04/06 08:46:11;;;;;;;0.85;0.50;;;;;;;25.64;10.04;97592.78;4986809;28;20054;-74
2022/04/06 08:48:37;;;;;;;2.55;0.60;;;;;;;25.59;10.06;97590.31;4999731;28;20022;-74
2022/04/06 08:51:03;;;;;;;0.68;0.40;;;;;;;25.64;10.13;97590.06;4999768;28;20038;-74
2022/04/06 08:53:29;;;;;;;0.77;0.47;;;;;;;25.54;10.10;97587.88;4983560;28;20039;-75
2022/04/06 08:55:54;;;;;;;0.90;0.40;;;;;;;25.64;10.08;97592.78;5001561;28;20034;-75
2022/04/06 08:58:19;;;;;;;0.28;0.28;;;;;;;25.64;10.07;97597.47;4998257;28;20129;-75
2022/04/06 09:00:45;;;;;;;2.38;1.25;;;;;;;25.70;10.00;97589.78;5000078;28;20041;-74
2022/04/06 09:03:10;;;;;;;0.95;0.63;;;;;;;25.70;10.17;97589.78;5000096;28;20023;-74
2022/04/06 09:05:36;;;;;;;0.75;0.47;;;;;;;25.57;10.27;97578.16;4985718;28;20030;-75
2022/04/06 09:08:02;;;;;;;8.48;3.08;;;;;;;25.35;10.21;97544.84;5004690;28;20098;-75
2022/04/06 09:10:32;;;;;;;34.38;12.73;;;;;;;25.70;10.17;97596.06;5022558;28;20080;-74
2022/04/06 09:13:20;;;;;;;35.97;11.63;;;;;;;25.71;10.32;97596.84;5020192;28;20448;-75
2022/04/06 09:15:46;;;;;;;31.27;11.13;;;;;;;25.78;10.35;97605.22;5019345;28;20052;-73
2022/04/06 09:18:11;;;;;;;47.55;16.70;;;;;;;25.60;10.18;97588.41;5020129;28;20025;-74
2022/04/06 09:20:37;;;;;;;90.78;32.53;;;;;;;25.70;10.12;97612.47;5019187;28;20534;-73
2022/04/06 09:23:02;;;;;;;37.17;16.70;;;;;;;25.75;10.44;97614.13;5021066;28;20040;-73
2022/04/06 09:25:39;;;;;;;143.88;54.45;;;;;;;25.70;10.25;97612.47;5018249;28;20084;-74
2022/04/06 09:28:06;;;;;;;96.25;35.80;;;;;;;25.76;10.25;97627.44;5019582;28;20483;-72
2022/04/06 09:30:37;;;;;;;27.58;11.93;;;;;;;25.78;10.48;97629.81;5016595;28;20472;-73
2022/04/06 09:33:03;;;;;;;17.17;7.28;;;;;;;25.78;10.17;97635.28;5013607;28;20072;-73
2022/04/06 09:35:30;;;;;;;83.07;31.55;;;;;;;25.80;10.41;97633.00;5018293;28;20030;-72
2022/04/06 09:38:22;;;;;;;32.13;13.75;;;;;;;25.82;10.71;97636.19;5014728;28;20026;-72
2022/04/06 09:40:48;;;;;;;20.33;8.65;;;;;;;25.82;10.28;97642.44;5016444;28;20042;-72
2022/04/06 09:43:27;;;;;;;30.63;11.77;;;;;;;25.80;10.49;97646.66;5014991;28;20060;-73
2022/04/06 09:48:56;;;;;;;31.38;12.40;;;;;;;25.72;10.25;97647.69;5015897;28;20096;-71
2022/04/06 09:51:22;;;;;;;15.55;6.95;;;;;;;25.36;10.50;97652.28;5014566;28;20111;-72
2022/04/06 09:53:48;;;;;;;10.32;4.72;;;;;;;25.61;10.20;97650.94;5014602;28;20030;-73
2022/04/06 09:56:14;;;;;;;9.65;4.18;;;;;;;25.66;10.47;97658.06;5014993;28;20033;-72
2022/04/06 09:58:39;;;;;;;6.60;3.10;;;;;;;25.77;10.31;97655.59;5014383;28;20030;-73
2022/04/06 10:01:06;;;;;;;5.47;2.72;;;;;;;25.75;10.57;97660.63;4999561;28;20037;-74
2022/04/06 10:03:31;;;;;;;5.13;2.15;;;;;;;25.83;10.51;97665.13;5014425;28;20026;-74
2022/04/06 10:05:57;;;;;;;4.28;2.00;;;;;;;25.79;10.29;97666.97;5015737;28;20477;-74
2022/04/06 10:08:23;;;;;;;4.20;1.92;;;;;;;25.72;10.30;97658.63;5017821;28;20084;-72
2022/04/06 10:10:51;;;;;;;3.35;1.77;;;;;;;25.77;10.35;97663.81;5019042;28;20025;-74
2022/04/06 10:13:17;;;;;;;8.25;3.00;;;;;;;25.80;10.39;97658.44;5016927;28;20140;-73
2022/04/06 10:15:44;;;;;;;8.43;3.90;;;;;;;25.66;10.60;97677.22;5026624;28;20046;-74
2022/04/06 10:18:11;;;;;;;11.55;4.38;;;;;;;25.85;10.41;97684.69;5019138;28;20045;-74
2022/04/06 10:21:12;;;;;;;23.65;10.18;;;;;;;25.91;10.86;97686.03;5020172;28;20037;-74
2022/04/06 10:24:04;;;;;;;85.07;33.30;;;;;;;25.98;10.67;97683.47;4966217;28;20042;-73
2022/04/06 10:27:07;;;;;;;119.43;45.17;;;;;;;25.88;11.04;97683.22;4989863;28;20046;-74
2022/04/06 10:29:57;;;;;;;55.80;23.13;;;;;;;25.79;11.08;97686.13;4982350;28;20540;-73
2022/04/06 10:32:38;;;;;;;47.55;19.08;;;;;;;25.91;10.93;97672.34;4975075;28;20031;-74
2022/04/06 10:35:34;;;;;;;23.83;10.05;;;;;;;26.01;10.94;97688.25;4988970;28;20038;-74
2022/04/06 10:37:59;;;;;;;17.77;6.85;;;;;;;26.01;11.07;97690.97;4959114;28;20401;-73
2022/04/06 10:40:42;;;;;;;10.23;4.40;;;;;;;25.58;10.85;97692.66;4984568;28;20050;-74
2022/04/06 10:43:50;;;;;;;7.85;3.00;;;;;;;25.52;10.80;97683.13;4981390;28;20066;-74
2022/04/06 10:46:17;;;;;;;7.22;2.72;;;;;;;25.70;11.00;97688.25;4980153;28;20026;-73
2022/04/06 10:49:00;;;;;;;5.57;2.35;;;;;;;25.92;10.83;97701.28;4979160;28;20034;-74
2022/04/06 10:51:30;;;;;;;4.95;1.92;;;;;;;25.97;10.61;97702.97;4977503;28;20054;-75
2022/04/06 10:53:56;;;;;;;3.55;1.90;;;;;;;26.00;10.47;97697.59;4976586;28;20150;-74
2022/04/06 10:56:22;;;;;;;5.13;1.80;;;;;;;25.85;10.53;97695.63;4977177;28;20062;-74
2022/04/06 10:58:53;;;;;;;5.13;2.08;;;;;;;25.97;10.67;97719.41;4982531;28;20105;-73
2022/04/06 11:01:19;;;;;;;4.93;1.65;;;;;;;25.95;10.56;97711.53;5019423;28;20120;-74
2022/04/06 11:04:05;;;;;;;1.92;1.33;;;;;;;25.94;10.67;97726.41;5016135;28;20440;-73
2022/04/06 11:06:48;;;;;;;2.42;1.10;;;;;;;25.80;10.55;97704.94;5014807;28;20033;-73
2022/04/06 11:12:18;;;;;;;2.13;0.82;;;;;;;25.96;10.36;97732.31;4996684;28;20041;-74
2022/04/06 11:15:05;;;;;;;1.08;0.70;;;;;;;25.83;10.49;97726.09;5011207;28;20491;-73
2022/04/06 11:17:32;;;;;;;1.27;0.60;;;;;;;25.98;10.54;97740.16;4975108;28;20193;-74
2022/04/06 11:19:58;;;;;;;0.65;0.40;;;;;;;26.00;10.26;97741.38;4974931;28;20035;-73
2022/04/06 11:22:23;;;;;;;1.02;0.40;;;;;;;25.99;10.71;97750.75;4974480;28;20510;-74
2022/04/06 11:24:49;;;;;;;0.90;0.40;;;;;;;26.04;10.46;97753.22;4974778;28;20031;-74
2022/04/06 11:27:31;;;;;;;0.73;0.40;;;;;;;26.09;10.65;97754.09;4994247;28;20100;-73
2022/04/06 11:30:00;;;;;;;0.77;0.35;;;;;;;26.05;10.44;97757.53;4993932;28;20034;-74
2022/04/06 11:32:25;;;;;;;0.73;0.52;;;;;;;26.02;10.60;97754.72;4993707;28;20135;-73
2022/04/06 11:34:50;;;;;;;1.90;0.40;;;;;;;26.02;10.64;97750.03;4993383;28;20137;-73
2022/04/06 11:37:16;;;;;;;0.75;0.40;;;;;;;26.02;10.68;97757.44;4993201;28;20045;-72
2022/04/06 11:39:42;;;;;;;0.40;0.40;;;;;;;26.02;10.65;97760.19;4993857;28;20460;-73
2022/04/06 11:42:14;;;;;;;1.85;0.40;;;;;;;25.97;10.74;97758.50;4994331;28;20049;-73